sensor_id;sensor_type;location;lat;lon;timestamp;P1;durP1;ratioP1;P2;durP2;ratioP2
37231;SDS011;23125;48.156;15.954;2023-12-07T00:01:55;11.07;;;7.50;;
37231;SDS011;23125;48.156;15.954;2023-12-07T00:04:21;12.18;;;7.55;;
37231;SDS011;23125;48.156;15.954;2023-12-07T00:06:47;12.38;;;7.35;;
37231;SDS011;23125;48.156;15.954;2023-12-07T00:09:13;11.68;;;7.82;;
37231;SDS011;23125;48.156;15.954;2023-12-07T00:11:39;12.75;;;7.53;;
37231;SDS011;23125;48.156;15.954;2023-12-07T00:14:05;11.15;;;7.25;;
37231;SDS011;23125;48.156;15.954;2023-12-07T00:16:34;9.95;;;6.80;;
37231;SDS011;23125;48.156;15.954;2023-12-07T00:18:59;11.33;;;7.50;;
37231;SDS011;23125;48.156;15.954;2023-12-07T00:21:25;10.90;;;7.65;;
37231;SDS011;23125;48.156;15.954;2023-12-07T00:23:51;13.52;;;8.02;;
37231;SDS011;23125;48.156;15.954;2023-12-07T00:26:17;10.75;;;6.72;;
37231;SDS011;23125;48.156;15.954;2023-12-07T00:28:43;11.80;;;7.43;;
37231;SDS011;23125;48.156;15.954;2023-12-07T00:31:09;10.82;;;6.65;;
37231;SDS011;23125;48.156;15.954;2023-12-07T00:33:35;11.35;;;7.30;;
37231;SDS011;23125;48.156;15.954;2023-12-07T00:36:01;12.13;;;7.80;;
37231;SDS011;23125;48.156;15.954;2023-12-07T00:38:27;10.43;;;7.10;;
37231;SDS011;23125;48.156;15.954;2023-12-07T00:40:53;12.75;;;7.63;;
37231;SDS011;23125;48.156;15.954;2023-12-07T00:43:19;11.52;;;6.97;;
37231;SDS011;23125;48.156;15.954;2023-12-07T00:45:45;11.00;;;6.95;;
37231;SDS011;23125;48.156;15.954;2023-12-07T00:48:11;9.45;;;6.15;;
37231;SDS011;23125;48.156;15.954;2023-12-07T00:50:36;10.85;;;6.97;;
37231;SDS011;23125;48.156;15.954;2023-12-07T00:53:02;10.90;;;6.68;;
37231;SDS011;23125;48.156;15.954;2023-12-07T00:55:28;11.32;;;7.03;;
37231;SDS011;23125;48.156;15.954;2023-12-07T00:57:54;10.50;;;6.63;;
37231;SDS011;23125;48.156;15.954;2023-12-07T01:00:20;10.80;;;6.82;;
37231;SDS011;23125;48.156;15.954;2023-12-07T01:02:46;8.82;;;5.57;;
37231;SDS011;23125;48.156;15.954;2023-12-07T01:05:12;11.07;;;6.97;;
37231;SDS011;23125;48.156;15.954;2023-12-07T01:07:37;12.60;;;7.82;;
37231;SDS011;23125;48.156;15.954;2023-12-07T01:10:03;13.10;;;7.97;;
37231;SDS011;23125;48.156;15.954;2023-12-07T01:12:31;11.95;;;7.70;;
37231;SDS011;23125;48.156;15.954;2023-12-07T01:14:56;12.05;;;7.63;;
37231;SDS011;23125;48.156;15.954;2023-12-07T01:17:22;12.75;;;7.60;;
37231;SDS011;23125;48.156;15.954;2023-12-07T01:19:48;11.13;;;7.32;;
37231;SDS011;23125;48.156;15.954;2023-12-07T01:22:14;11.60;;;7.88;;
37231;SDS011;23125;48.156;15.954;2023-12-07T01:24:40;11.88;;;8.18;;
37231;SDS011;23125;48.156;15.954;2023-12-07T01:27:05;11.02;;;7.30;;
37231;SDS011;23125;48.156;15.954;2023-12-07T01:29:31;11.30;;;7.75;;
37231;SDS011;23125;48.156;15.954;2023-12-07T01:31:57;25.58;;;13.52;;
37231;SDS011;23125;48.156;15.954;2023-12-07T01:34:24;25.42;;;12.73;;
37231;SDS011;23125;48.156;15.954;2023-12-07T01:36:49;16.73;;;9.98;;
37231;SDS011;23125;48.156;15.954;2023-12-07T01:39:15;15.55;;;9.18;;
37231;SDS011;23125;48.156;15.954;2023-12-07T01:41:41;12.93;;;7.75;;
37231;SDS011;23125;48.156;15.954;2023-12-07T01:44:07;13.98;;;9.35;;
37231;SDS011;23125;48.156;15.954;2023-12-07T01:46:33;13.25;;;8.98;;
37231;SDS011;23125;48.156;15.954;2023-12-07T01:49:00;13.88;;;8.45;;
37231;SDS011;23125;48.156;15.954;2023-12-07T01:51:26;13.05;;;8.65;;
37231;SDS011;23125;48.156;15.954;2023-12-07T01:53:52;14.40;;;9.00;;
37231;SDS011;23125;48.156;15.954;2023-12-07T01:56:19;13.95;;;9.15;;
37231;SDS011;23125;48.156;15.954;2023-12-07T01:58:49;14.98;;;9.45;;
37231;SDS011;23125;48.156;15.954;2023-12-07T02:01:16;13.75;;;8.35;;
37231;SDS011;23125;48.156;15.954;2023-12-07T02:03:42;13.77;;;9.07;;
37231;SDS011;23125;48.156;15.954;2023-12-07T02:06:08;16.05;;;8.95;;
37231;SDS011;23125;48.156;15.954;2023-12-07T02:08:36;16.45;;;9.63;;
37231;SDS011;23125;48.156;15.954;2023-12-07T02:11:09;15.15;;;9.40;;
37231;SDS011;23125;48.156;15.954;2023-12-07T02:13:37;16.08;;;9.75;;
37231;SDS011;23125;48.156;15.954;2023-12-07T02:16:07;15.45;;;9.35;;
37231;SDS011;23125;48.156;15.954;2023-12-07T02:18:50;13.88;;;8.98;;
37231;SDS011;23125;48.156;15.954;2023-12-07T02:24:06;12.93;;;8.23;;
37231;SDS011;23125;48.156;15.954;2023-12-07T02:26:34;13.75;;;9.07;;
37231;SDS011;23125;48.156;15.954;2023-12-07T02:29:00;14.65;;;8.65;;
37231;SDS011;23125;48.156;15.954;2023-12-07T02:31:27;14.48;;;9.13;;
37231;SDS011;23125;48.156;15.954;2023-12-07T02:33:53;15.90;;;9.27;;
37231;SDS011;23125;48.156;15.954;2023-12-07T02:36:19;15.07;;;9.63;;
37231;SDS011;23125;48.156;15.954;2023-12-07T02:38:48;16.35;;;10.18;;
37231;SDS011;23125;48.156;15.954;2023-12-07T02:41:17;15.90;;;10.38;;
37231;SDS011;23125;48.156;15.954;2023-12-07T02:43:45;16.50;;;9.95;;
37231;SDS011;23125;48.156;15.954;2023-12-07T02:46:12;15.18;;;10.45;;
37231;SDS011;23125;48.156;15.954;2023-12-07T02:48:38;15.45;;;8.82;;
37231;SDS011;23125;48.156;15.954;2023-12-07T02:51:04;19.20;;;11.60;;
37231;SDS011;23125;48.156;15.954;2023-12-07T02:53:30;17.88;;;10.10;;
37231;SDS011;23125;48.156;15.954;2023-12-07T02:55:56;16.67;;;10.48;;
37231;SDS011;23125;48.156;15.954;2023-12-07T02:58:21;19.73;;;10.95;;
37231;SDS011;23125;48.156;15.954;2023-12-07T03:00:47;24.83;;;15.43;;
37231;SDS011;23125;48.156;15.954;2023-12-07T03:03:13;16.13;;;10.02;;
37231;SDS011;23125;48.156;15.954;2023-12-07T03:05:39;17.35;;;10.27;;
37231;SDS011;23125;48.156;15.954;2023-12-07T03:08:05;14.30;;;9.27;;
37231;SDS011;23125;48.156;15.954;2023-12-07T03:10:31;15.77;;;10.07;;
37231;SDS011;23125;48.156;15.954;2023-12-07T03:12:56;15.52;;;9.15;;
37231;SDS011;23125;48.156;15.954;2023-12-07T03:15:22;17.35;;;9.77;;
37231;SDS011;23125;48.156;15.954;2023-12-07T03:17:49;17.50;;;10.63;;
37231;SDS011;23125;48.156;15.954;2023-12-07T03:20:16;18.95;;;10.65;;
37231;SDS011;23125;48.156;15.954;2023-12-07T03:22:42;14.88;;;9.45;;
37231;SDS011;23125;48.156;15.954;2023-12-07T03:25:08;15.68;;;9.65;;
37231;SDS011;23125;48.156;15.954;2023-12-07T03:27:34;16.75;;;11.18;;
37231;SDS011;23125;48.156;15.954;2023-12-07T03:30:00;16.92;;;11.07;;
37231;SDS011;23125;48.156;15.954;2023-12-07T03:32:26;18.65;;;10.85;;
37231;SDS011;23125;48.156;15.954;2023-12-07T03:34:52;17.67;;;10.73;;
37231;SDS011;23125;48.156;15.954;2023-12-07T03:37:17;17.83;;;10.50;;
37231;SDS011;23125;48.156;15.954;2023-12-07T03:39:43;15.73;;;10.32;;
37231;SDS011;23125;48.156;15.954;2023-12-07T03:42:09;16.85;;;10.20;;
37231;SDS011;23125;48.156;15.954;2023-12-07T03:44:35;18.80;;;11.38;;
37231;SDS011;23125;48.156;15.954;2023-12-07T03:47:01;16.63;;;9.98;;
37231;SDS011;23125;48.156;15.954;2023-12-07T03:49:27;15.80;;;9.93;;
37231;SDS011;23125;48.156;15.954;2023-12-07T03:51:54;17.38;;;10.68;;
37231;SDS011;23125;48.156;15.954;2023-12-07T03:54:20;19.00;;;12.07;;
37231;SDS011;23125;48.156;15.954;2023-12-07T03:56:46;18.67;;;11.63;;
37231;SDS011;23125;48.156;15.954;2023-12-07T03:59:11;17.48;;;10.68;;
37231;SDS011;23125;48.156;15.954;2023-12-07T04:01:37;18.70;;;11.77;;
37231;SDS011;23125;48.156;15.954;2023-12-07T04:04:03;18.23;;;10.82;;
37231;SDS011;23125;48.156;15.954;2023-12-07T04:06:30;18.35;;;11.18;;
37231;SDS011;23125;48.156;15.954;2023-12-07T04:08:56;19.08;;;11.45;;
37231;SDS011;23125;48.156;15.954;2023-12-07T04:11:21;19.02;;;11.50;;
37231;SDS011;23125;48.156;15.954;2023-12-07T04:13:47;19.42;;;11.20;;
37231;SDS011;23125;48.156;15.954;2023-12-07T04:16:14;18.00;;;11.02;;
37231;SDS011;23125;48.156;15.954;2023-12-07T04:18:40;16.60;;;10.63;;
37231;SDS011;23125;48.156;15.954;2023-12-07T04:21:06;16.77;;;10.07;;
37231;SDS011;23125;48.156;15.954;2023-12-07T04:23:32;17.02;;;10.68;;
37231;SDS011;23125;48.156;15.954;2023-12-07T04:25:58;18.75;;;11.15;;
37231;SDS011;23125;48.156;15.954;2023-12-07T04:28:24;16.20;;;9.75;;
37231;SDS011;23125;48.156;15.954;2023-12-07T04:30:50;18.23;;;10.30;;
37231;SDS011;23125;48.156;15.954;2023-12-07T04:33:16;21.60;;;12.50;;
37231;SDS011;23125;48.156;15.954;2023-12-07T04:35:42;22.15;;;12.68;;
37231;SDS011;23125;48.156;15.954;2023-12-07T04:38:08;16.73;;;11.13;;
37231;SDS011;23125;48.156;15.954;2023-12-07T04:40:34;19.33;;;10.05;;
37231;SDS011;23125;48.156;15.954;2023-12-07T04:42:59;25.17;;;13.82;;
37231;SDS011;23125;48.156;15.954;2023-12-07T04:45:25;21.98;;;13.27;;
37231;SDS011;23125;48.156;15.954;2023-12-07T04:47:51;18.55;;;11.70;;
37231;SDS011;23125;48.156;15.954;2023-12-07T04:50:17;21.20;;;11.65;;
37231;SDS011;23125;48.156;15.954;2023-12-07T04:52:43;20.48;;;12.48;;
37231;SDS011;23125;48.156;15.954;2023-12-07T04:55:09;19.33;;;11.52;;
37231;SDS011;23125;48.156;15.954;2023-12-07T04:57:35;18.55;;;11.05;;
37231;SDS011;23125;48.156;15.954;2023-12-07T05:00:02;16.58;;;10.73;;
37231;SDS011;23125;48.156;15.954;2023-12-07T05:02:31;18.23;;;10.90;;
37231;SDS011;23125;48.156;15.954;2023-12-07T05:04:58;17.25;;;10.45;;
37231;SDS011;23125;48.156;15.954;2023-12-07T05:07:24;20.08;;;11.77;;
37231;SDS011;23125;48.156;15.954;2023-12-07T05:09:50;17.45;;;11.57;;
37231;SDS011;23125;48.156;15.954;2023-12-07T05:12:16;19.25;;;11.90;;
37231;SDS011;23125;48.156;15.954;2023-12-07T05:14:43;20.73;;;11.57;;
37231;SDS011;23125;48.156;15.954;2023-12-07T05:17:09;21.52;;;11.52;;
37231;SDS011;23125;48.156;15.954;2023-12-07T05:19:34;18.10;;;12.02;;
37231;SDS011;23125;48.156;15.954;2023-12-07T05:22:00;17.77;;;10.15;;
37231;SDS011;23125;48.156;15.954;2023-12-07T05:24:27;18.52;;;11.75;;
37231;SDS011;23125;48.156;15.954;2023-12-07T05:26:53;18.83;;;11.45;;
37231;SDS011;23125;48.156;15.954;2023-12-07T05:29:19;19.90;;;12.10;;
37231;SDS011;23125;48.156;15.954;2023-12-07T05:31:47;16.08;;;10.63;;
37231;SDS011;23125;48.156;15.954;2023-12-07T05:34:15;20.00;;;10.73;;
37231;SDS011;23125;48.156;15.954;2023-12-07T05:36:41;19.73;;;12.98;;
37231;SDS011;23125;48.156;15.954;2023-12-07T05:39:07;20.05;;;11.32;;
37231;SDS011;23125;48.156;15.954;2023-12-07T05:41:33;19.83;;;12.15;;
37231;SDS011;23125;48.156;15.954;2023-12-07T05:43:59;18.58;;;11.35;;
37231;SDS011;23125;48.156;15.954;2023-12-07T05:46:25;20.20;;;11.52;;
37231;SDS011;23125;48.156;15.954;2023-12-07T05:48:51;17.48;;;10.23;;
37231;SDS011;23125;48.156;15.954;2023-12-07T05:51:17;19.02;;;11.10;;
37231;SDS011;23125;48.156;15.954;2023-12-07T05:53:43;17.45;;;11.02;;
37231;SDS011;23125;48.156;15.954;2023-12-07T05:56:10;21.58;;;12.50;;
37231;SDS011;23125;48.156;15.954;2023-12-07T05:58:37;19.63;;;11.27;;
37231;SDS011;23125;48.156;15.954;2023-12-07T06:01:03;20.05;;;11.80;;
37231;SDS011;23125;48.156;15.954;2023-12-07T06:03:30;17.80;;;10.05;;
37231;SDS011;23125;48.156;15.954;2023-12-07T06:05:57;20.42;;;11.63;;
37231;SDS011;23125;48.156;15.954;2023-12-07T06:08:23;20.90;;;12.50;;
37231;SDS011;23125;48.156;15.954;2023-12-07T06:10:49;19.17;;;11.52;;
37231;SDS011;23125;48.156;15.954;2023-12-07T06:13:15;18.98;;;11.10;;
37231;SDS011;23125;48.156;15.954;2023-12-07T06:15:40;19.48;;;11.93;;
37231;SDS011;23125;48.156;15.954;2023-12-07T06:18:06;21.27;;;12.60;;
37231;SDS011;23125;48.156;15.954;2023-12-07T06:20:33;21.83;;;12.50;;
37231;SDS011;23125;48.156;15.954;2023-12-07T06:23:00;20.85;;;12.20;;
37231;SDS011;23125;48.156;15.954;2023-12-07T06:25:27;19.67;;;10.70;;
37231;SDS011;23125;48.156;15.954;2023-12-07T06:27:53;18.08;;;11.10;;
37231;SDS011;23125;48.156;15.954;2023-12-07T06:30:19;18.73;;;11.38;;
37231;SDS011;23125;48.156;15.954;2023-12-07T06:32:44;20.13;;;11.40;;
37231;SDS011;23125;48.156;15.954;2023-12-07T06:35:13;17.42;;;10.80;;
37231;SDS011;23125;48.156;15.954;2023-12-07T06:37:39;20.50;;;11.90;;
37231;SDS011;23125;48.156;15.954;2023-12-07T06:40:07;20.58;;;11.55;;
37231;SDS011;23125;48.156;15.954;2023-12-07T06:42:37;18.10;;;10.40;;
37231;SDS011;23125;48.156;15.954;2023-12-07T06:45:03;18.52;;;10.15;;
37231;SDS011;23125;48.156;15.954;2023-12-07T06:47:30;23.35;;;13.02;;
37231;SDS011;23125;48.156;15.954;2023-12-07T06:49:56;20.30;;;10.98;;
37231;SDS011;23125;48.156;15.954;2023-12-07T06:52:22;20.17;;;12.15;;
37231;SDS011;23125;48.156;15.954;2023-12-07T06:54:48;22.35;;;12.05;;
37231;SDS011;23125;48.156;15.954;2023-12-07T06:57:14;20.60;;;11.93;;
37231;SDS011;23125;48.156;15.954;2023-12-07T06:59:40;22.70;;;11.88;;
37231;SDS011;23125;48.156;15.954;2023-12-07T07:02:06;21.88;;;11.98;;
37231;SDS011;23125;48.156;15.954;2023-12-07T07:04:32;21.52;;;11.88;;
37231;SDS011;23125;48.156;15.954;2023-12-07T07:06:58;19.13;;;11.63;;
37231;SDS011;23125;48.156;15.954;2023-12-07T07:09:24;21.98;;;12.48;;
37231;SDS011;23125;48.156;15.954;2023-12-07T07:11:50;26.02;;;13.00;;
37231;SDS011;23125;48.156;15.954;2023-12-07T07:14:18;20.80;;;12.38;;
37231;SDS011;23125;48.156;15.954;2023-12-07T07:16:44;20.92;;;12.40;;
37231;SDS011;23125;48.156;15.954;2023-12-07T07:19:10;19.08;;;12.07;;
37231;SDS011;23125;48.156;15.954;2023-12-07T07:21:36;22.60;;;12.82;;
37231;SDS011;23125;48.156;15.954;2023-12-07T07:24:02;21.55;;;12.30;;
37231;SDS011;23125;48.156;15.954;2023-12-07T07:26:28;21.55;;;11.98;;
37231;SDS011;23125;48.156;15.954;2023-12-07T07:28:53;21.35;;;12.55;;
37231;SDS011;23125;48.156;15.954;2023-12-07T07:31:19;21.55;;;12.27;;
37231;SDS011;23125;48.156;15.954;2023-12-07T07:33:45;18.40;;;10.95;;
37231;SDS011;23125;48.156;15.954;2023-12-07T07:36:14;19.40;;;11.50;;
37231;SDS011;23125;48.156;15.954;2023-12-07T07:38:40;20.17;;;10.95;;
37231;SDS011;23125;48.156;15.954;2023-12-07T07:41:07;23.58;;;12.55;;
37231;SDS011;23125;48.156;15.954;2023-12-07T07:43:33;17.40;;;10.15;;
37231;SDS011;23125;48.156;15.954;2023-12-07T07:46:02;18.25;;;11.63;;
37231;SDS011;23125;48.156;15.954;2023-12-07T07:48:29;25.20;;;13.07;;
37231;SDS011;23125;48.156;15.954;2023-12-07T07:50:55;20.48;;;12.10;;
37231;SDS011;23125;48.156;15.954;2023-12-07T07:53:20;21.13;;;11.95;;
37231;SDS011;23125;48.156;15.954;2023-12-07T07:55:46;20.92;;;12.13;;
37231;SDS011;23125;48.156;15.954;2023-12-07T07:58:12;21.65;;;12.13;;
37231;SDS011;23125;48.156;15.954;2023-12-07T08:00:38;19.90;;;11.95;;
37231;SDS011;23125;48.156;15.954;2023-12-07T08:03:04;17.48;;;11.38;;
37231;SDS011;23125;48.156;15.954;2023-12-07T08:05:30;19.15;;;11.10;;
37231;SDS011;23125;48.156;15.954;2023-12-07T08:07:56;20.42;;;11.35;;
37231;SDS011;23125;48.156;15.954;2023-12-07T08:10:22;18.40;;;11.23;;
37231;SDS011;23125;48.156;15.954;2023-12-07T08:12:48;19.35;;;12.02;;
37231;SDS011;23125;48.156;15.954;2023-12-07T08:15:13;22.58;;;11.93;;
37231;SDS011;23125;48.156;15.954;2023-12-07T08:17:39;18.77;;;11.90;;
37231;SDS011;23125;48.156;15.954;2023-12-07T08:20:10;20.83;;;12.10;;
37231;SDS011;23125;48.156;15.954;2023-12-07T08:22:37;18.35;;;11.43;;
37231;SDS011;23125;48.156;15.954;2023-12-07T08:25:04;19.25;;;11.65;;
37231;SDS011;23125;48.156;15.954;2023-12-07T08:27:31;18.67;;;11.52;;
37231;SDS011;23125;48.156;15.954;2023-12-07T08:29:58;21.10;;;12.65;;
37231;SDS011;23125;48.156;15.954;2023-12-07T08:32:24;20.70;;;11.57;;
37231;SDS011;23125;48.156;15.954;2023-12-07T08:37:20;20.70;;;12.05;;
37231;SDS011;23125;48.156;15.954;2023-12-07T08:39:46;19.05;;;12.00;;
37231;SDS011;23125;48.156;15.954;2023-12-07T08:42:12;23.25;;;12.95;;
37231;SDS011;23125;48.156;15.954;2023-12-07T08:44:38;22.95;;;13.48;;
37231;SDS011;23125;48.156;15.954;2023-12-07T08:47:04;20.95;;;13.02;;
37231;SDS011;23125;48.156;15.954;2023-12-07T08:49:30;25.65;;;15.13;;
37231;SDS011;23125;48.156;15.954;2023-12-07T08:51:56;20.75;;;12.60;;
37231;SDS011;23125;48.156;15.954;2023-12-07T08:54:23;19.58;;;11.30;;
37231;SDS011;23125;48.156;15.954;2023-12-07T08:56:49;20.88;;;12.85;;
37231;SDS011;23125;48.156;15.954;2023-12-07T08:59:14;22.10;;;12.32;;
37231;SDS011;23125;48.156;15.954;2023-12-07T09:01:40;19.02;;;11.85;;
37231;SDS011;23125;48.156;15.954;2023-12-07T09:04:06;22.27;;;13.40;;
37231;SDS011;23125;48.156;15.954;2023-12-07T09:06:32;25.27;;;17.63;;
37231;SDS011;23125;48.156;15.954;2023-12-07T09:08:58;31.83;;;21.33;;
37231;SDS011;23125;48.156;15.954;2023-12-07T09:11:24;29.25;;;20.42;;
37231;SDS011;23125;48.156;15.954;2023-12-07T09:13:50;30.00;;;20.95;;
37231;SDS011;23125;48.156;15.954;2023-12-07T09:16:16;26.75;;;17.20;;
37231;SDS011;23125;48.156;15.954;2023-12-07T09:18:42;22.85;;;13.70;;
37231;SDS011;23125;48.156;15.954;2023-12-07T09:21:10;25.02;;;14.48;;
37231;SDS011;23125;48.156;15.954;2023-12-07T09:23:36;25.15;;;14.70;;
37231;SDS011;23125;48.156;15.954;2023-12-07T09:26:02;23.25;;;14.85;;
37231;SDS011;23125;48.156;15.954;2023-12-07T09:28:29;31.85;;;19.88;;
37231;SDS011;23125;48.156;15.954;2023-12-07T09:30:54;57.15;;;38.00;;
37231;SDS011;23125;48.156;15.954;2023-12-07T09:33:20;29.45;;;18.90;;
37231;SDS011;23125;48.156;15.954;2023-12-07T09:35:46;27.83;;;18.23;;
37231;SDS011;23125;48.156;15.954;2023-12-07T09:38:13;22.48;;;13.98;;
37231;SDS011;23125;48.156;15.954;2023-12-07T09:40:39;25.45;;;14.13;;
37231;SDS011;23125;48.156;15.954;2023-12-07T09:43:04;26.63;;;16.67;;
37231;SDS011;23125;48.156;15.954;2023-12-07T09:45:30;23.65;;;13.77;;
37231;SDS011;23125;48.156;15.954;2023-12-07T09:47:56;22.70;;;12.98;;
37231;SDS011;23125;48.156;15.954;2023-12-07T09:50:26;30.48;;;16.83;;
37231;SDS011;23125;48.156;15.954;2023-12-07T09:52:54;31.08;;;17.52;;
37231;SDS011;23125;48.156;15.954;2023-12-07T09:55:22;25.10;;;14.50;;
37231;SDS011;23125;48.156;15.954;2023-12-07T09:57:50;21.02;;;12.32;;
37231;SDS011;23125;48.156;15.954;2023-12-07T10:00:16;23.75;;;14.52;;
37231;SDS011;23125;48.156;15.954;2023-12-07T10:02:45;26.00;;;16.10;;
37231;SDS011;23125;48.156;15.954;2023-12-07T10:05:12;22.75;;;13.45;;
37231;SDS011;23125;48.156;15.954;2023-12-07T10:07:45;23.73;;;14.40;;
37231;SDS011;23125;48.156;15.954;2023-12-07T10:10:14;23.23;;;13.48;;
37231;SDS011;23125;48.156;15.954;2023-12-07T10:12:59;22.95;;;13.65;;
37231;SDS011;23125;48.156;15.954;2023-12-07T10:15:25;22.30;;;13.40;;
37231;SDS011;23125;48.156;15.954;2023-12-07T10:17:52;25.85;;;16.58;;
37231;SDS011;23125;48.156;15.954;2023-12-07T10:20:24;22.35;;;14.13;;
37231;SDS011;23125;48.156;15.954;2023-12-07T10:23:01;25.42;;;15.57;;
37231;SDS011;23125;48.156;15.954;2023-12-07T10:25:29;24.90;;;14.68;;
37231;SDS011;23125;48.156;15.954;2023-12-07T10:28:00;27.48;;;15.02;;
37231;SDS011;23125;48.156;15.954;2023-12-07T10:30:31;21.00;;;13.32;;
37231;SDS011;23125;48.156;15.954;2023-12-07T10:32:58;22.02;;;12.80;;
37231;SDS011;23125;48.156;15.954;2023-12-07T10:35:23;24.17;;;13.05;;
37231;SDS011;23125;48.156;15.954;2023-12-07T10:37:50;20.45;;;13.23;;
37231;SDS011;23125;48.156;15.954;2023-12-07T10:40:16;21.52;;;13.70;;
37231;SDS011;23125;48.156;15.954;2023-12-07T10:42:47;21.38;;;13.35;;
37231;SDS011;23125;48.156;15.954;2023-12-07T10:45:14;24.33;;;14.85;;
37231;SDS011;23125;48.156;15.954;2023-12-07T10:47:40;24.20;;;15.10;;
37231;SDS011;23125;48.156;15.954;2023-12-07T10:50:09;21.67;;;12.75;;
37231;SDS011;23125;48.156;15.954;2023-12-07T10:52:45;22.40;;;13.57;;
37231;SDS011;23125;48.156;15.954;2023-12-07T10:55:20;23.40;;;13.90;;
37231;SDS011;23125;48.156;15.954;2023-12-07T10:57:52;21.60;;;12.60;;
37231;SDS011;23125;48.156;15.954;2023-12-07T11:00:19;33.08;;;18.00;;
37231;SDS011;23125;48.156;15.954;2023-12-07T11:02:49;32.00;;;17.15;;
37231;SDS011;23125;48.156;15.954;2023-12-07T11:05:20;29.23;;;16.33;;
37231;SDS011;23125;48.156;15.954;2023-12-07T11:07:53;30.63;;;19.08;;
37231;SDS011;23125;48.156;15.954;2023-12-07T11:10:25;28.17;;;15.77;;
37231;SDS011;23125;48.156;15.954;2023-12-07T11:13:11;29.80;;;16.05;;
37231;SDS011;23125;48.156;15.954;2023-12-07T11:15:59;22.65;;;14.40;;
37231;SDS011;23125;48.156;15.954;2023-12-07T11:18:26;26.00;;;15.45;;
37231;SDS011;23125;48.156;15.954;2023-12-07T11:20:54;25.67;;;14.70;;
37231;SDS011;23125;48.156;15.954;2023-12-07T11:23:21;21.10;;;13.23;;
37231;SDS011;23125;48.156;15.954;2023-12-07T11:25:47;22.60;;;13.30;;
37231;SDS011;23125;48.156;15.954;2023-12-07T11:28:15;23.40;;;13.80;;
37231;SDS011;23125;48.156;15.954;2023-12-07T11:30:42;19.85;;;12.40;;
37231;SDS011;23125;48.156;15.954;2023-12-07T11:33:10;21.13;;;14.38;;
37231;SDS011;23125;48.156;15.954;2023-12-07T11:38:29;18.88;;;12.27;;
37231;SDS011;23125;48.156;15.954;2023-12-07T11:40:55;20.40;;;13.40;;
37231;SDS011;23125;48.156;15.954;2023-12-07T11:46:08;20.80;;;12.10;;
37231;SDS011;23125;48.156;15.954;2023-12-07T11:48:34;19.27;;;11.90;;
37231;SDS011;23125;48.156;15.954;2023-12-07T11:53:30;22.60;;;13.23;;
37231;SDS011;23125;48.156;15.954;2023-12-07T11:55:57;21.13;;;13.38;;
37231;SDS011;23125;48.156;15.954;2023-12-07T11:58:29;18.55;;;11.25;;
37231;SDS011;23125;48.156;15.954;2023-12-07T12:00:56;17.20;;;11.60;;
37231;SDS011;23125;48.156;15.954;2023-12-07T12:03:23;22.45;;;13.40;;
37231;SDS011;23125;48.156;15.954;2023-12-07T12:05:53;22.55;;;13.50;;
37231;SDS011;23125;48.156;15.954;2023-12-07T12:08:20;17.95;;;12.25;;
37231;SDS011;23125;48.156;15.954;2023-12-07T12:10:47;19.50;;;11.35;;
37231;SDS011;23125;48.156;15.954;2023-12-07T12:13:16;20.08;;;11.55;;
37231;SDS011;23125;48.156;15.954;2023-12-07T12:15:42;20.38;;;13.48;;
37231;SDS011;23125;48.156;15.954;2023-12-07T12:18:08;21.48;;;13.00;;
37231;SDS011;23125;48.156;15.954;2023-12-07T12:20:35;21.40;;;12.13;;
37231;SDS011;23125;48.156;15.954;2023-12-07T12:23:01;21.10;;;12.50;;
37231;SDS011;23125;48.156;15.954;2023-12-07T12:25:28;19.58;;;12.00;;
37231;SDS011;23125;48.156;15.954;2023-12-07T12:28:01;21.35;;;12.27;;
37231;SDS011;23125;48.156;15.954;2023-12-07T12:30:29;21.33;;;12.93;;
37231;SDS011;23125;48.156;15.954;2023-12-07T12:32:55;20.67;;;12.52;;
37231;SDS011;23125;48.156;15.954;2023-12-07T12:35:22;21.00;;;12.73;;
37231;SDS011;23125;48.156;15.954;2023-12-07T12:37:50;21.60;;;12.45;;
37231;SDS011;23125;48.156;15.954;2023-12-07T12:40:20;20.55;;;12.10;;
37231;SDS011;23125;48.156;15.954;2023-12-07T12:42:48;21.13;;;12.55;;
37231;SDS011;23125;48.156;15.954;2023-12-07T12:45:16;18.08;;;12.00;;
37231;SDS011;23125;48.156;15.954;2023-12-07T12:47:46;18.98;;;12.27;;
37231;SDS011;23125;48.156;15.954;2023-12-07T12:50:32;19.17;;;12.13;;
37231;SDS011;23125;48.156;15.954;2023-12-07T12:53:07;19.50;;;11.23;;
37231;SDS011;23125;48.156;15.954;2023-12-07T12:55:36;17.50;;;11.25;;
37231;SDS011;23125;48.156;15.954;2023-12-07T12:58:08;20.33;;;12.88;;
37231;SDS011;23125;48.156;15.954;2023-12-07T13:00:39;20.98;;;12.80;;
37231;SDS011;23125;48.156;15.954;2023-12-07T13:03:06;21.15;;;12.23;;
37231;SDS011;23125;48.156;15.954;2023-12-07T13:05:32;25.30;;;14.10;;
37231;SDS011;23125;48.156;15.954;2023-12-07T13:07:59;22.05;;;13.93;;
37231;SDS011;23125;48.156;15.954;2023-12-07T13:10:26;29.45;;;17.02;;
37231;SDS011;23125;48.156;15.954;2023-12-07T13:12:53;22.75;;;12.52;;
37231;SDS011;23125;48.156;15.954;2023-12-07T13:15:18;22.70;;;14.15;;
37231;SDS011;23125;48.156;15.954;2023-12-07T13:17:44;22.48;;;14.10;;
37231;SDS011;23125;48.156;15.954;2023-12-07T13:20:10;19.02;;;12.27;;
37231;SDS011;23125;48.156;15.954;2023-12-07T13:22:39;21.00;;;11.55;;
37231;SDS011;23125;48.156;15.954;2023-12-07T13:25:08;23.90;;;13.30;;
37231;SDS011;23125;48.156;15.954;2023-12-07T13:27:35;20.13;;;13.48;;
37231;SDS011;23125;48.156;15.954;2023-12-07T13:30:02;24.35;;;14.98;;
37231;SDS011;23125;48.156;15.954;2023-12-07T13:32:32;22.42;;;13.30;;
37231;SDS011;23125;48.156;15.954;2023-12-07T13:34:59;23.67;;;13.60;;
37231;SDS011;23125;48.156;15.954;2023-12-07T13:37:27;40.10;;;19.15;;
37231;SDS011;23125;48.156;15.954;2023-12-07T13:39:53;19.88;;;13.38;;
37231;SDS011;23125;48.156;15.954;2023-12-07T13:42:25;20.40;;;13.07;;
37231;SDS011;23125;48.156;15.954;2023-12-07T13:44:56;20.60;;;12.82;;
37231;SDS011;23125;48.156;15.954;2023-12-07T13:47:23;22.10;;;13.45;;
37231;SDS011;23125;48.156;15.954;2023-12-07T13:49:57;19.73;;;12.10;;
37231;SDS011;23125;48.156;15.954;2023-12-07T13:52:24;18.83;;;12.02;;
37231;SDS011;23125;48.156;15.954;2023-12-07T13:54:50;20.88;;;12.85;;
37231;SDS011;23125;48.156;15.954;2023-12-07T13:57:18;21.98;;;12.35;;
37231;SDS011;23125;48.156;15.954;2023-12-07T13:59:45;20.20;;;12.88;;
37231;SDS011;23125;48.156;15.954;2023-12-07T14:02:11;20.67;;;13.35;;
37231;SDS011;23125;48.156;15.954;2023-12-07T14:04:38;20.10;;;13.23;;
37231;SDS011;23125;48.156;15.954;2023-12-07T14:07:13;20.58;;;12.95;;
37231;SDS011;23125;48.156;15.954;2023-12-07T14:09:41;23.23;;;13.05;;
37231;SDS011;23125;48.156;15.954;2023-12-07T14:12:09;23.48;;;12.80;;
37231;SDS011;23125;48.156;15.954;2023-12-07T14:14:43;26.77;;;13.60;;
37231;SDS011;23125;48.156;15.954;2023-12-07T14:17:10;21.70;;;12.35;;
37231;SDS011;23125;48.156;15.954;2023-12-07T14:19:41;24.92;;;14.55;;
37231;SDS011;23125;48.156;15.954;2023-12-07T14:22:07;25.42;;;15.00;;
37231;SDS011;23125;48.156;15.954;2023-12-07T14:24:35;28.20;;;16.13;;